Time;durP1;ratioP1;P1;durP2;ratioP2;P2;SDS_P1;SDS_P2;PMS_P1;PMS_P2;Temp;Humidity;BMP_temperature;BMP_pressure;BME280_temperature;BME280_humidity;BME280_pressure;Samples;Min_cycle;Max_cycle;Signal;HPM_P1;HPM_P2
2023/05/14 00:00:58;;;;;;;6.82;5.07;;;;;;;15.96;40.06;100973.19;5071646;28;20254;-51
2023/05/14 00:03:26;;;;;;;5.18;4.10;;;;;;;15.97;40.28;100973.16;5071900;28;20590;-51
2023/05/14 00:05:54;;;;;;;8.23;4.85;;;;;;;15.97;40.18;100970.53;5070932;28;20212;-51
2023/05/14 00:08:23;;;;;;;6.25;4.88;;;;;;;15.96;40.21;100971.44;5064670;28;20206;-51
2023/05/14 00:10:51;;;;;;;7.57;5.07;;;;;;;15.96;40.10;100965.38;5069636;28;20209;-52
2023/05/14 00:13:19;;;;;;;7.10;4.97;;;;;;;15.97;40.07;100962.75;5067570;28;20198;-57
2023/05/14 00:15:46;;;;;;;5.93;5.13;;;;;;;15.99;39.97;100967.94;5069530;28;20201;-50
2023/05/14 00:18:14;;;;;;;7.60;5.18;;;;;;;16.05;40.38;100973.00;5071689;28;20595;-50
2023/05/14 00:20:42;;;;;;;7.07;5.43;;;;;;;16.12;40.68;100962.44;5070831;28;20201;-52
2023/05/14 00:23:10;;;;;;;7.65;5.40;;;;;;;16.18;40.31;100962.34;5069989;28;20229;-57
2023/05/14 00:25:40;;;;;;;7.53;4.85;;;;;;;16.28;40.91;100964.75;5069465;28;20245;-49
2023/05/14 00:28:07;;;;;;;9.90;5.25;;;;;;;16.30;39.82;100957.78;5065116;28;20266;-50
2023/05/14 00:30:35;;;;;;;6.88;4.80;;;;;;;16.32;40.19;100954.25;5069186;28;20668;-49
2023/05/14 00:33:03;;;;;;;8.57;5.55;;;;;;;16.37;40.20;100948.94;5070406;28;20644;-52
2023/05/14 00:35:34;;;;;;;8.13;4.80;;;;;;;16.40;39.45;100948.91;5070096;28;20208;-53
2023/05/14 00:38:02;;;;;;;6.88;4.68;;;;;;;16.42;40.06;100957.50;5070699;28;20201;-52
2023/05/14 00:40:30;;;;;;;7.97;4.82;;;;;;;16.46;40.80;100956.59;5069798;28;20217;-53
2023/05/14 00:43:09;;;;;;;10.23;5.10;;;;;;;16.48;41.23;100959.13;5066676;28;20263;-59
2023/05/14 00:45:37;;;;;;;8.23;4.93;;;;;;;16.44;41.06;100950.53;5069652;28;20754;-56
2023/05/14 00:48:05;;;;;;;6.85;5.20;;;;;;;16.45;41.36;100957.44;5071345;28;20652;-52
2023/05/14 00:50:34;;;;;;;8.13;4.90;;;;;;;16.43;41.32;100952.28;5070018;28;20205;-50
2023/05/14 00:53:03;;;;;;;7.13;4.55;;;;;;;16.40;41.00;100957.56;5071270;28;20610;-60
2023/05/14 00:55:31;;;;;;;5.53;4.90;;;;;;;16.37;41.03;100956.75;5070594;28;20202;-54
2023/05/14 00:58:01;;;;;;;6.00;4.90;;;;;;;16.32;41.37;100954.25;5071023;28;20209;-51
2023/05/14 01:00:29;;;;;;;6.88;5.43;;;;;;;16.31;41.56;100956.88;5062543;28;20255;-50
2023/05/14 01:03:00;;;;;;;7.57;5.68;;;;;;;16.29;41.99;100954.31;5071289;28;20274;-49
2023/05/14 01:05:33;;;;;;;7.10;5.10;;;;;;;16.27;41.93;100958.69;5070865;28;20225;-60
2023/05/14 01:08:07;;;;;;;12.55;5.75;;;;;;;16.25;42.19;100951.81;5069793;28;20665;-54
2023/05/14 01:10:42;;;;;;;8.73;5.53;;;;;;;16.21;42.13;100952.78;5070058;28;20246;-51
2023/05/14 01:13:19;;;;;;;6.97;5.18;;;;;;;16.19;42.41;100947.59;5070736;28;20270;-52
2023/05/14 01:15:49;;;;;;;7.13;5.15;;;;;;;16.15;42.40;100945.94;5069690;28;20254;-55
2023/05/14 01:18:18;;;;;;;7.85;5.70;;;;;;;16.12;43.16;100941.66;5064848;28;20288;-49
2023/05/14 01:20:50;;;;;;;7.97;5.43;;;;;;;16.09;43.25;100952.13;5061229;28;20213;-52
2023/05/14 01:23:19;;;;;;;9.52;5.88;;;;;;;16.09;43.25;100943.44;5070611;28;20594;-51
2023/05/14 01:25:47;;;;;;;8.48;6.07;;;;;;;16.09;43.81;100939.13;5069739;28;20233;-50
2023/05/14 01:28:17;;;;;;;9.75;5.15;;;;;;;16.08;43.82;100942.59;5070451;28;20225;-50
2023/05/14 01:30:51;;;;;;;6.18;5.30;;;;;;;16.05;43.54;100932.25;5070510;28;20212;-50
2023/05/14 01:33:21;;;;;;;9.45;5.72;;;;;;;16.03;43.56;100941.00;5069638;28;20193;-52
2023/05/14 01:35:52;;;;;;;6.85;5.20;;;;;;;15.99;44.18;100939.34;5066571;28;20251;-54
2023/05/14 01:38:23;;;;;;;7.20;5.15;;;;;;;15.97;43.89;100941.09;5068522;28;20205;-50
2023/05/14 01:40:52;;;;;;;7.28;5.32;;;;;;;15.94;43.97;100944.59;5069170;28;20233;-52
2023/05/14 01:43:20;;;;;;;8.80;5.65;;;;;;;15.92;44.49;100943.78;5069289;28;20205;-50
2023/05/14 01:45:48;;;;;;;12.50;5.38;;;;;;;15.90;43.82;100936.00;5073316;28;20321;-52
2023/05/14 01:48:16;;;;;;;11.85;6.45;;;;;;;15.90;44.55;100922.16;5069772;28;20292;-50
2023/05/14 01:50:44;;;;;;;9.02;5.57;;;;;;;15.88;44.04;100926.56;5073267;28;20244;-51
2023/05/14 01:53:12;;;;;;;8.57;6.15;;;;;;;15.85;44.46;100932.66;5072497;28;20664;-51
2023/05/14 01:55:41;;;;;;;9.38;6.57;;;;;;;15.80;44.47;100929.31;5071785;28;20197;-50
2023/05/14 01:58:09;;;;;;;7.95;6.57;;;;;;;15.71;44.36;100932.06;5073891;28;20296;-51
2023/05/14 02:00:37;;;;;;;9.85;6.80;;;;;;;15.60;45.20;100934.81;5070340;28;20263;-58
2023/05/14 02:03:05;;;;;;;10.15;7.03;;;;;;;15.53;45.13;100930.59;5073092;28;20231;-59
2023/05/14 02:05:33;;;;;;;11.00;7.35;;;;;;;15.49;45.35;100935.91;5071437;28;20220;-57
2023/05/14 02:08:01;;;;;;;9.63;6.67;;;;;;;15.45;45.63;100930.75;5073384;28;20210;-58
2023/05/14 02:10:28;;;;;;;11.00;7.30;;;;;;;15.48;46.05;100932.44;5067040;28;20205;-58
2023/05/14 02:12:58;;;;;;;10.18;7.07;;;;;;;15.45;45.67;100925.56;5073766;28;20226;-59
2023/05/14 02:15:25;;;;;;;7.87;6.97;;;;;;;15.45;46.12;100933.34;5074237;28;20266;-59
2023/05/14 02:17:53;;;;;;;7.85;6.45;;;;;;;15.47;46.21;100935.94;5073493;28;20258;-58
2023/05/14 02:20:21;;;;;;;10.13;7.50;;;;;;;15.47;46.04;100933.34;5071913;28;20656;-58
2023/05/14 02:22:49;;;;;;;11.98;7.22;;;;;;;15.48;46.23;100934.19;5073054;28;20566;-57
2023/05/14 02:25:17;;;;;;;10.77;7.38;;;;;;;15.49;46.39;100925.50;5072424;28;20205;-57
2023/05/14 02:27:46;;;;;;;10.23;7.50;;;;;;;15.49;46.36;100922.91;5071815;28;20193;-58
2023/05/14 02:30:15;;;;;;;8.77;7.20;;;;;;;15.50;46.47;100924.59;5072499;28;20648;-57
2023/05/14 02:32:43;;;;;;;8.43;6.85;;;;;;;15.46;47.22;100926.41;5072745;28;20255;-57
2023/05/14 02:35:11;;;;;;;11.45;7.57;;;;;;;15.45;46.80;100925.56;5073322;28;20202;-56
2023/05/14 02:37:39;;;;;;;10.23;7.33;;;;;;;15.44;47.17;100918.66;5073464;28;20205;-58
2023/05/14 02:40:08;;;;;;;10.05;7.38;;;;;;;15.41;47.41;100917.84;5073181;28;20223;-58
2023/05/14 02:42:35;;;;;;;9.43;8.30;;;;;;;15.39;47.39;100911.81;5066536;28;20198;-60
2023/05/14 02:45:04;;;;;;;8.80;7.30;;;;;;;15.39;47.56;100923.09;5073164;28;20217;-62
2023/05/14 02:47:33;;;;;;;10.18;7.68;;;;;;;15.38;47.84;100925.69;5073155;28;20201;-58
2023/05/14 02:50:05;;;;;;;9.52;7.35;;;;;;;15.35;47.68;100915.34;5072714;28;20326;-61
2023/05/14 02:52:33;;;;;;;9.93;7.60;;;;;;;15.30;47.63;100907.66;5072062;28;20201;-57
2023/05/14 02:55:01;;;;;;;12.27;8.53;;;;;;;15.29;47.56;100916.31;5072569;28;20263;-59
2023/05/14 02:57:29;;;;;;;9.80;8.23;;;;;;;15.28;48.10;100916.34;5071122;28;20252;-60
2023/05/14 02:59:57;;;;;;;11.68;8.07;;;;;;;15.20;47.99;100922.50;5070436;28;20205;-57
2023/05/14 03:02:25;;;;;;;11.60;9.03;;;;;;;15.15;47.74;100913.94;5071438;28;20615;-60
2023/05/14 03:04:55;;;;;;;13.83;8.87;;;;;;;15.09;47.36;100915.78;5072433;28;20247;-58
2023/05/14 03:07:22;;;;;;;11.60;9.00;;;;;;;15.00;47.60;100918.53;5072718;28;20205;-58
2023/05/14 03:09:50;;;;;;;12.03;8.97;;;;;;;14.91;47.49;100923.00;5071069;28;20255;-61
2023/05/14 03:12:19;;;;;;;12.67;9.07;;;;;;;14.81;48.01;100926.59;5072298;28;20206;-57
2023/05/14 03:14:47;;;;;;;12.27;9.67;;;;;;;14.74;48.38;100932.75;5073056;28;20217;-57
2023/05/14 03:17:15;;;;;;;12.40;8.87;;;;;;;14.64;48.70;100931.19;5063009;28;20677;-58
2023/05/14 03:19:43;;;;;;;11.33;9.03;;;;;;;14.59;48.43;100927.81;5071364;28;20201;-58
2023/05/14 03:22:12;;;;;;;11.50;9.00;;;;;;;14.55;49.07;100923.53;5072196;28;20202;-52
2023/05/14 03:24:40;;;;;;;11.60;8.97;;;;;;;14.58;48.61;100926.06;5070576;28;20579;-54
2023/05/14 03:27:08;;;;;;;14.43;9.10;;;;;;;14.62;49.23;100923.44;5071552;28;20221;-50
2023/05/14 03:29:36;;;;;;;12.40;9.13;;;;;;;14.64;48.86;100915.59;5072810;28;20608;-51
2023/05/14 03:32:04;;;;;;;11.40;8.70;;;;;;;14.65;49.37;100917.31;5072478;28;20706;-56
2023/05/14 03:34:38;;;;;;;17.30;9.13;;;;;;;14.72;49.26;100921.53;5066683;28;20705;-53
2023/05/14 03:37:09;;;;;;;19.65;9.13;;;;;;;14.81;49.19;100913.63;5068582;28;20193;-51
2023/05/14 03:39:39;;;;;;;10.38;8.27;;;;;;;14.88;48.90;100920.44;5071302;28;20251;-55
2023/05/14 03:42:07;;;;;;;10.38;8.85;;;;;;;14.92;48.67;100918.66;5071333;28;20252;-51
2023/05/14 03:44:34;;;;;;;12.30;8.87;;;;;;;14.88;48.79;100920.44;5072201;28;20241;-52
2023/05/14 03:47:02;;;;;;;11.90;8.53;;;;;;;14.85;48.43;100924.81;5070951;28;20258;-51
2023/05/14 03:49:30;;;;;;;13.00;8.77;;;;;;;14.86;48.46;100917.00;5072003;28;20248;-51
2023/05/14 03:51:58;;;;;;;12.18;8.20;;;;;;;14.92;48.20;100911.72;5071327;28;20205;-51
2023/05/14 03:54:26;;;;;;;11.68;9.05;;;;;;;14.98;48.23;100910.75;5069784;28;20205;-50
2023/05/14 03:56:55;;;;;;;13.77;8.87;;;;;;;15.05;48.11;100911.53;5068551;28;20213;-54
2023/05/14 03:59:23;;;;;;;13.77;8.82;;;;;;;15.06;47.76;100906.34;5057023;28;20232;-51
2023/05/14 04:01:51;;;;;;;8.63;7.60;;;;;;;15.11;48.46;100908.84;5071018;28;20213;-50
2023/05/14 04:04:18;;;;;;;10.83;8.87;;;;;;;15.10;48.02;100912.34;5071639;28;20201;-48
2023/05/14 04:06:46;;;;;;;12.77;8.93;;;;;;;15.07;48.56;100904.59;5069044;28;20217;-51
2023/05/14 04:09:15;;;;;;;10.93;9.03;;;;;;;15.02;48.52;100901.19;5070198;28;20239;-52
2023/05/14 04:11:42;;;;;;;13.05;8.75;;;;;;;15.01;49.09;100902.09;5064456;28;20229;-51
2023/05/14 04:14:11;;;;;;;10.57;8.83;;;;;;;15.01;48.98;100904.69;5068228;28;20637;-49
2023/05/14 04:16:39;;;;;;;12.40;8.87;;;;;;;15.02;49.07;100901.19;5060082;28;20205;-51
2023/05/14 04:19:07;;;;;;;13.90;8.17;;;;;;;15.04;49.05;100899.44;5070421;28;20255;-51
2023/05/14 04:21:35;;;;;;;13.02;9.40;;;;;;;15.07;48.94;100907.19;5070511;28;20209;-52
2023/05/14 04:24:03;;;;;;;12.43;9.23;;;;;;;15.01;49.56;100900.34;5070485;28;20867;-50
2023/05/14 04:26:31;;;;;;;9.87;8.17;;;;;;;15.01;49.12;100896.88;5070542;28;20271;-53
2023/05/14 04:29:01;;;;;;;11.80;9.03;;;;;;;15.00;49.58;100903.81;5065253;28;20201;-50
2023/05/14 04:31:31;;;;;;;11.07;9.10;;;;;;;15.08;49.51;100904.56;5069992;28;20209;-50
2023/05/14 04:33:59;;;;;;;10.57;9.48;;;;;;;15.13;49.62;100909.66;5071077;28;20683;-52
2023/05/14 04:36:27;;;;;;;11.83;8.63;;;;;;;15.17;49.53;100906.13;5070774;28;20201;-51
2023/05/14 04:38:55;;;;;;;15.13;8.83;;;;;;;15.21;49.72;100913.00;5071012;28;20197;-51
2023/05/14 04:41:23;;;;;;;12.17;10.03;;;;;;;15.22;49.59;100906.94;5071390;28;20713;-50
2023/05/14 04:43:51;;;;;;;13.07;9.10;;;;;;;15.23;49.14;100911.22;5070326;28;20255;-51
2023/05/14 04:46:18;;;;;;;14.57;9.90;;;;;;;15.25;49.58;100909.47;5064119;28;20249;-50
2023/05/14 04:48:49;;;;;;;10.90;9.30;;;;;;;15.29;49.18;100903.34;5070504;28;20287;-52
2023/05/14 04:51:17;;;;;;;14.33;9.60;;;;;;;15.35;49.87;100908.41;5070318;28;20538;-49
2023/05/14 04:53:45;;;;;;;11.33;9.23;;;;;;;15.43;49.02;100909.16;5071098;28;20208;-53
2023/05/14 04:56:13;;;;;;;14.20;9.30;;;;;;;15.57;48.89;100910.63;5071234;28;20199;-50
2023/05/14 04:58:41;;;;;;;10.90;9.63;;;;;;;15.80;48.27;100907.66;5070448;28;20553;-52
2023/05/14 05:01:08;;;;;;;11.50;9.88;;;;;;;16.14;47.44;100905.22;5070211;28;20298;-54
2023/05/14 05:03:36;;;;;;;15.82;10.52;;;;;;;16.63;46.59;100906.75;5065762;28;20284;-58
2023/05/14 05:06:06;;;;;;;13.60;9.73;;;;;;;17.12;45.05;100901.28;5070586;28;20205;-51
2023/05/14 05:08:34;;;;;;;14.80;10.02;;;;;;;17.70;43.69;100904.09;5070249;28;20734;-49
2023/05/14 05:11:02;;;;;;;12.63;9.57;;;;;;;18.28;42.16;100897.28;5068851;28;20217;-53
2023/05/14 05:13:31;;;;;;;15.68;8.88;;;;;;;18.76;40.79;100896.69;5069893;28;20305;-51
2023/05/14 05:15:58;;;;;;;12.40;8.57;;;;;;;19.11;39.18;100888.59;5070011;28;20201;-50
2023/05/14 05:18:26;;;;;;;10.68;8.15;;;;;;;19.48;37.73;100894.31;5067129;28;20210;-53
2023/05/14 05:20:55;;;;;;;12.38;9.18;;;;;;;20.03;36.59;100894.13;5070577;28;20288;-50
2023/05/14 05:23:24;;;;;;;9.93;8.25;;;;;;;20.83;35.42;100889.28;5074769;28;20236;-54
2023/05/14 05:25:52;;;;;;;13.68;8.95;;;;;;;21.63;34.21;100897.28;5074218;28;20213;-53
2023/05/14 05:28:19;;;;;;;11.32;8.80;;;;;;;22.40;32.83;100885.94;5074664;28;20224;-59
2023/05/14 05:30:47;;;;;;;9.88;8.35;;;;;;;23.10;31.27;100884.31;5073762;28;20667;-50
2023/05/14 05:33:15;;;;;;;9.32;8.32;;;;;;;23.65;29.85;100886.75;5074218;28;20205;-59
2023/05/14 05:35:44;;;;;;;11.88;8.23;;;;;;;24.24;29.38;100876.59;5066728;28;20202;-52
2023/05/14 05:38:13;;;;;;;10.65;8.27;;;;;;;24.62;27.72;100884.16;5074861;28;20223;-50
2023/05/14 05:40:43;;;;;;;14.38;8.40;;;;;;;25.00;27.76;100880.16;5070159;28;20267;-50
2023/05/14 05:43:12;;;;;;;10.98;8.35;;;;;;;25.68;27.08;100879.63;5074746;28;20232;-51
2023/05/14 05:45:40;;;;;;;9.18;7.95;;;;;;;26.38;25.99;100879.66;5074359;28;20263;-51
2023/05/14 05:48:08;;;;;;;11.57;7.03;;;;;;;26.97;25.14;100880.22;5073858;28;20650;-58
2023/05/14 05:50:36;;;;;;;9.38;7.10;;;;;;;27.17;23.39;100881.56;5073544;28;20610;-51
2023/05/14 05:53:04;;;;;;;7.53;5.78;;;;;;;27.17;22.81;100875.41;5072827;28;20267;-52
2023/05/14 05:55:31;;;;;;;7.57;6.78;;;;;;;27.22;22.65;100878.59;5073292;28;20247;-54
2023/05/14 05:58:01;;;;;;;11.82;6.32;;;;;;;27.33;22.40;100878.72;5072952;28;20255;-51
2023/05/14 06:00:30;;;;;;;9.15;6.20;;;;;;;27.43;22.19;100876.25;5061104;28;20201;-51
2023/05/14 06:02:57;;;;;;;9.25;6.57;;;;;;;27.81;22.09;100881.59;5065226;28;20214;-51
2023/05/14 06:05:26;;;;;;;7.78;5.88;;;;;;;28.30;21.22;100882.53;5067424;28;20291;-53
2023/05/14 06:07:56;;;;;;;8.35;6.00;;;;;;;28.73;21.14;100868.81;5065621;28;20217;-53
2023/05/14 06:10:26;;;;;;;7.38;5.80;;;;;;;29.05;20.58;100871.69;5064936;28;20254;-51
2023/05/14 06:12:54;;;;;;;8.23;5.13;;;;;;;29.18;20.07;100869.81;5070820;28;20228;-50
2023/05/14 06:15:23;;;;;;;8.63;5.07;;;;;;;29.29;19.69;100864.53;5074023;28;20651;-56
2023/05/14 06:17:51;;;;;;;7.43;5.05;;;;;;;29.50;19.31;100872.63;5073396;28;20204;-51
2023/05/14 06:20:19;;;;;;;7.07;5.15;;;;;;;29.68;19.15;100873.03;5073798;28;20241;-52
2023/05/14 06:22:47;;;;;;;6.72;4.75;;;;;;;29.91;19.00;100867.72;5073843;28;20202;-51
2023/05/14 06:25:15;;;;;;;9.52;5.50;;;;;;;29.98;18.72;100868.91;5073846;28;20263;-51
2023/05/14 06:27:43;;;;;;;7.65;5.60;;;;;;;29.85;18.81;100879.66;5072743;28;20244;-53
2023/05/14 06:30:12;;;;;;;7.55;4.93;;;;;;;29.80;18.86;100874.72;5070415;28;20581;-57
2023/05/14 06:32:41;;;;;;;11.23;5.13;;;;;;;29.98;18.97;100869.75;5066084;28;20206;-49
2023/05/14 06:35:10;;;;;;;7.70;4.93;;;;;;;30.35;18.31;100868.63;5064573;28;20201;-55
2023/05/14 06:37:37;;;;;;;6.10;4.50;;;;;;;30.80;18.27;100867.50;5071492;28;20204;-57
2023/05/14 06:40:07;;;;;;;6.10;4.55;;;;;;;31.22;17.86;100867.50;5072917;28;20721;-55
2023/05/14 06:42:35;;;;;;;7.75;5.30;;;;;;;31.54;17.13;100871.91;5064079;28;20667;-58
2023/05/14 06:45:03;;;;;;;6.78;5.05;;;;;;;31.70;16.69;100869.63;5062951;28;20201;-55
2023/05/14 06:47:31;;;;;;;8.10;4.90;;;;;;;31.67;17.06;100869.88;5064771;28;20585;-47
2023/05/14 06:50:00;;;;;;;5.95;4.45;;;;;;;31.53;17.52;100870.25;5073217;28;20206;-49
2023/05/14 06:52:28;;;;;;;8.38;4.97;;;;;;;31.55;17.31;100867.44;5073049;28;20208;-49
2023/05/14 06:54:56;;;;;;;7.43;4.60;;;;;;;31.56;17.25;100869.09;5073215;28;20201;-59
2023/05/14 06:57:24;;;;;;;7.35;5.30;;;;;;;31.66;17.33;100870.84;5072993;28;20209;-59
2023/05/14 06:59:52;;;;;;;7.10;5.10;;;;;;;32.11;17.46;100869.59;5073068;28;20279;-54
2023/05/14 07:02:20;;;;;;;6.18;4.53;;;;;;;32.31;16.74;100866.00;5068768;28;20280;-59
2023/05/14 07:04:48;;;;;;;6.07;4.20;;;;;;;32.60;16.41;100860.72;5072700;28;20209;-55
2023/05/14 07:07:19;;;;;;;7.68;4.80;;;;;;;32.88;15.55;100859.03;5072026;28;20720;-51
2023/05/14 07:09:47;;;;;;;6.32;4.07;;;;;;;33.06;15.33;100859.16;5072974;28;20209;-53
2023/05/14 07:12:15;;;;;;;5.97;3.63;;;;;;;33.29;15.07;100861.53;5071882;28;20746;-52
2023/05/14 07:14:43;;;;;;;6.80;4.55;;;;;;;33.83;14.80;100851.88;5071296;28;20201;-52
2023/05/14 07:17:11;;;;;;;6.28;4.47;;;;;;;34.03;14.49;100848.16;5071189;28;20251;-48
2023/05/14 07:19:39;;;;;;;7.93;4.38;;;;;;;34.30;14.35;100857.13;5064022;28;20634;-53
2023/05/14 07:22:07;;;;;;;7.78;3.63;;;;;;;34.78;13.92;100853.22;5071000;28;20229;-51
2023/05/14 07:24:36;;;;;;;6.18;3.53;;;;;;;35.21;13.51;100847.03;5071061;28;20782;-53
2023/05/14 07:27:05;;;;;;;5.00;3.45;;;;;;;35.49;13.34;100846.81;5058938;28;20255;-54
2023/05/14 07:29:33;;;;;;;5.57;3.80;;;;;;;35.13;13.52;100848.81;5070494;28;20580;-51
2023/05/14 07:32:01;;;;;;;3.78;3.38;;;;;;;35.19;13.43;100856.22;5072275;28;20610;-57
2023/05/14 07:34:29;;;;;;;4.57;3.25;;;;;;;34.93;13.06;100854.34;5071041;28;20201;-49
2023/05/14 07:36:57;;;;;;;6.45;4.00;;;;;;;34.60;13.78;100847.88;5070042;28;20349;-52
2023/05/14 07:39:25;;;;;;;3.08;2.60;;;;;;;34.45;13.50;100849.38;5071529;28;20236;-55
2023/05/14 07:41:54;;;;;;;5.85;3.17;;;;;;;34.23;13.81;100848.00;5070210;28;20709;-49
2023/05/14 07:44:22;;;;;;;4.72;3.35;;;;;;;33.82;13.72;100847.53;5070727;28;20205;-50
2023/05/14 07:46:50;;;;;;;3.47;2.80;;;;;;;32.78;14.24;100849.34;5072173;28;20205;-48
2023/05/14 07:49:18;;;;;;;5.80;3.42;;;;;;;32.08;14.66;100844.09;5070782;28;20636;-51
2023/05/14 07:51:46;;;;;;;5.18;3.30;;;;;;;31.50;15.12;100847.38;5064036;28;20622;-49
2023/05/14 07:54:14;;;;;;;3.67;3.30;;;;;;;30.67;15.94;100840.22;5071212;28;20679;-57
2023/05/14 07:56:41;;;;;;;6.47;3.22;;;;;;;29.90;17.32;100840.31;5072251;28;20205;-48
2023/05/14 07:59:11;;;;;;;5.05;2.97;;;;;;;29.37;17.76;100835.56;5069980;28;20197;-54
2023/05/14 08:01:38;;;;;;;4.07;2.70;;;;;;;28.46;18.13;100839.84;5071173;28;20690;-51
2023/05/14 08:04:06;;;;;;;6.25;3.08;;;;;;;27.72;19.24;100841.63;5071589;28;20371;-52
2023/05/14 08:06:34;;;;;;;3.85;2.55;;;;;;;27.10;20.45;100834.41;5067150;28;20577;-52
2023/05/14 08:09:04;;;;;;;3.97;2.90;;;;;;;26.58;20.31;100830.81;5061053;28;20217;-51
2023/05/14 08:11:32;;;;;;;4.63;3.17;;;;;;;26.30;21.24;100828.28;5070280;28;20212;-50
2023/05/14 08:13:59;;;;;;;3.40;2.83;;;;;;;26.18;21.19;100824.59;5068865;28;20258;-52
2023/05/14 08:16:29;;;;;;;4.63;3.17;;;;;;;25.94;21.77;100824.41;5071719;28;20212;-50
2023/05/14 08:18:57;;;;;;;5.05;3.15;;;;;;;25.51;22.59;100824.38;5069733;28;20287;-50
2023/05/14 08:21:24;;;;;;;5.47;3.42;;;;;;;25.27;23.31;100811.75;5068320;28;20724;-56
2023/05/14 08:23:52;;;;;;;5.55;3.45;;;;;;;25.23;24.05;100815.53;5073261;28;20270;-54
2023/05/14 08:26:20;;;;;;;8.30;2.70;;;;;;;25.13;23.42;100808.25;5068821;28;20263;-52
2023/05/14 08:28:49;;;;;;;5.03;2.80;;;;;;;24.93;23.52;100804.13;5063964;28;20497;-54
2023/05/14 08:31:17;;;;;;;3.30;3.00;;;;;;;24.53;23.91;100812.59;5069947;28;20664;-53
2023/05/14 08:33:46;;;;;;;4.03;3.05;;;;;;;24.36;24.64;100810.03;5068336;28;20280;-54
2023/05/14 08:36:14;;;;;;;4.20;3.00;;;;;;;24.11;25.11;100807.94;5066705;28;20343;-53
2023/05/14 08:38:43;;;;;;;4.47;3.08;;;;;;;24.07;25.73;100809.03;5067979;28;20197;-52
2023/05/14 08:41:12;;;;;;;5.05;3.17;;;;;;;23.80;25.32;100816.69;5063611;28;20201;-48
2023/05/14 08:43:45;;;;;;;4.00;3.10;;;;;;;23.74;25.87;100811.75;5065212;28;20201;-51
2023/05/14 08:46:17;;;;;;;6.07;3.58;;;;;;;23.69;26.15;100808.53;5063534;28;20205;-52
2023/05/14 08:48:52;;;;;;;3.85;3.13;;;;;;;23.78;26.58;100808.00;5067447;28;20221;-59
2023/05/14 08:51:20;;;;;;;2.88;2.40;;;;;;;23.91;26.21;100813.47;5068231;28;20205;-59
2023/05/14 08:53:48;;;;;;;3.38;2.97;;;;;;;23.93;26.45;100807.16;5054730;28;20197;-62
2023/05/14 08:56:18;;;;;;;7.72;2.70;;;;;;;23.86;25.66;100801.41;5069342;28;20193;-65
2023/05/14 08:58:45;;;;;;;5.13;3.20;;;;;;;23.83;25.81;100800.72;5063876;28;20197;-57
2023/05/14 09:01:13;;;;;;;5.22;2.80;;;;;;;23.91;25.86;100803.78;5070706;28;20251;-61
2023/05/14 09:03:42;;;;;;;5.70;2.83;;;;;;;23.94;24.29;100800.16;5068997;28;20205;-58
2023/05/14 09:06:13;;;;;;;3.72;2.70;;;;;;;23.69;24.58;100798.84;5068372;28;20201;-58
2023/05/14 09:08:42;;;;;;;4.68;2.30;;;;;;;23.58;24.56;100794.13;5058739;28;20213;-57
2023/05/14 09:11:09;;;;;;;3.17;2.53;;;;;;;23.58;25.12;100799.38;5061763;28;20215;-58
2023/05/14 09:13:38;;;;;;;4.55;2.45;;;;;;;23.74;25.84;100785.44;5070376;28;20251;-57
2023/05/14 09:16:07;;;;;;;3.20;2.72;;;;;;;23.88;25.57;100785.53;5067803;28;20240;-58
2023/05/14 09:18:36;;;;;;;4.15;2.80;;;;;;;23.84;23.92;100794.53;5064207;28;20209;-58
2023/05/14 09:21:04;;;;;;;2.92;2.55;;;;;;;23.61;24.86;100779.97;5069378;28;20674;-63
2023/05/14 09:23:34;;;;;;;2.80;2.15;;;;;;;23.46;25.01;100779.00;5067730;28;20291;-60
2023/05/14 09:26:04;;;;;;;2.88;2.25;;;;;;;23.46;25.00;100775.53;5063981;28;20274;-60
2023/05/14 09:28:32;;;;;;;2.33;2.13;;;;;;;23.57;24.74;100781.06;5072411;28;20201;-59
2023/05/14 09:31:02;;;;;;;3.45;2.13;;;;;;;23.68;25.04;100781.38;5070793;28;20213;-59
2023/05/14 09:33:30;;;;;;;2.90;2.33;;;;;;;23.67;23.29;100784.91;5070577;28;20729;-58
2023/05/14 09:35:59;;;;;;;3.25;2.25;;;;;;;23.49;23.86;100776.22;5069705;28;20332;-58
2023/05/14 09:38:30;;;;;;;2.67;1.95;;;;;;;23.48;24.39;100768.38;5069258;28;20197;-58
2023/05/14 09:41:00;;;;;;;8.85;2.65;;;;;;;23.57;24.88;100773.16;5070379;28;20244;-59
2023/05/14 09:43:28;;;;;;;3.05;2.10;;;;;;;23.69;25.10;100767.25;5065473;28;20205;-59
2023/05/14 09:45:56;;;;;;;3.10;2.33;;;;;;;23.85;24.50;100759.38;5069811;28;20660;-59
2023/05/14 09:48:25;;;;;;;4.05;2.00;;;;;;;24.00;24.23;100765.56;5067765;28;20244;-58
2023/05/14 09:50:53;;;;;;;2.50;2.30;;;;;;;24.20;24.35;100762.66;5070546;28;20628;-59
2023/05/14 09:53:21;;;;;;;4.40;2.35;;;;;;;24.41;23.85;100765.03;5070497;28;20201;-59
2023/05/14 09:55:49;;;;;;;2.83;1.95;;;;;;;24.58;23.74;100751.72;5070339;28;20733;-58
2023/05/14 09:58:18;;;;;;;2.20;2.00;;;;;;;24.64;22.48;100755.81;5067932;28;20259;-57
2023/05/14 10:00:47;;;;;;;3.63;1.88;;;;;;;24.68;22.23;100749.41;5068078;28;20198;-60
2023/05/14 10:03:15;;;;;;;2.15;1.95;;;;;;;24.88;22.32;100741.13;5069550;28;20197;-59
2023/05/14 10:05:49;;;;;;;4.43;2.45;;;;;;;25.13;22.76;100747.59;5072133;28;20201;-58
2023/05/14 10:08:25;;;;;;;3.10;2.00;;;;;;;25.47;22.00;100746.38;5071064;28;20209;-62
2023/05/14 10:10:54;;;;;;;2.38;2.08;;;;;;;25.65;21.47;100736.44;5069507;28;20676;-59
2023/05/14 10:13:26;;;;;;;2.15;1.80;;;;;;;25.71;20.43;100730.78;5073783;28;20205;-60
2023/05/14 10:16:01;;;;;;;3.63;2.03;;;;;;;25.92;20.71;100736.50;5073652;28;20248;-64
2023/05/14 10:18:33;;;;;;;4.43;2.13;;;;;;;26.01;20.22;100747.31;5070418;28;20200;-47
2023/05/14 10:21:05;;;;;;;7.22;2.45;;;;;;;25.97;20.25;100751.09;5073720;28;20202;-47
2023/05/14 10:23:33;;;;;;;4.68;2.00;;;;;;;26.26;20.01;100735.16;5073456;28;20258;-51
2023/05/14 10:26:02;;;;;;;5.85;2.45;;;;;;;26.67;20.00;100737.69;5073783;28;20205;-47
2023/05/14 10:28:32;;;;;;;2.75;1.90;;;;;;;27.15;19.29;100735.28;5071627;28;20205;-47
2023/05/14 10:31:00;;;;;;;3.88;2.00;;;;;;;27.64;18.31;100723.84;5073751;28;20719;-49
2023/05/14 10:33:28;;;;;;;4.90;1.98;;;;;;;28.14;18.00;100716.69;5073745;28;20604;-47
2023/05/14 10:36:01;;;;;;;3.75;2.13;;;;;;;28.35;17.44;100716.03;5063911;28;20213;-54
2023/05/14 10:38:32;;;;;;;2.58;1.95;;;;;;;27.52;17.86;100721.25;5073256;28;20287;-56
2023/05/14 10:41:01;;;;;;;2.75;2.03;;;;;;;27.57;18.33;100714.66;5073354;28;20205;-56
2023/05/14 10:43:35;;;;;;;2.38;2.17;;;;;;;27.84;17.93;100705.72;5073505;28;20275;-48
2023/05/14 10:46:04;;;;;;;3.15;2.17;;;;;;;27.90;18.59;100711.41;5073215;28;20201;-51
2023/05/14 10:48:33;;;;;;;3.90;1.88;;;;;;;28.24;17.42;100726.59;5072971;28;20254;-55
2023/05/14 10:51:01;;;;;;;3.13;2.10;;;;;;;28.29;17.87;100704.09;5073437;28;20664;-58
2023/05/14 10:53:34;;;;;;;2.50;1.88;;;;;;;28.11;17.33;100697.53;5067287;28;20197;-59
2023/05/14 10:56:07;;;;;;;4.03;1.98;;;;;;;28.38;18.72;100691.97;5073394;28;20205;-62
2023/05/14 10:58:37;;;;;;;1.85;1.67;;;;;;;28.55;17.45;100693.34;5073451;28;20664;-57
2023/05/14 11:01:07;;;;;;;3.78;1.80;;;;;;;28.75;17.91;100687.34;5073365;28;20197;-63
2023/05/14 11:03:41;;;;;;;2.97;2.00;;;;;;;28.95;17.06;100671.69;5073208;28;20567;-60
2023/05/14 11:06:11;;;;;;;2.92;1.90;;;;;;;28.70;16.83;100686.03;5073002;28;20542;-59
2023/05/14 11:08:40;;;;;;;3.13;1.85;;;;;;;28.87;17.51;100667.00;5072748;28;20221;-59
2023/05/14 11:11:09;;;;;;;1.95;1.75;;;;;;;28.98;16.96;100664.38;5066793;28;20241;-58
2023/05/14 11:13:39;;;;;;;4.03;2.10;;;;;;;28.41;17.15;100665.25;5073305;28;20209;-57
2023/05/14 11:16:08;;;;;;;3.53;1.85;;;;;;;28.33;18.26;100649.88;5071755;28;20679;-59
2023/05/14 11:18:53;;;;;;;4.85;2.05;;;;;;;28.36;17.87;100649.66;5068757;28;20614;-63
2023/05/14 11:21:21;;;;;;;6.45;2.00;;;;;;;28.17;17.98;100650.22;5062135;28;20202;-59
2023/05/14 11:23:49;;;;;;;3.80;2.00;;;;;;;27.58;18.32;100651.97;5066223;28;20290;-51
2023/05/14 11:26:17;;;;;;;2.53;1.92;;;;;;;27.20;18.66;100652.94;5065857;28;20206;-52
2023/05/14 11:28:49;;;;;;;2.42;1.80;;;;;;;26.96;18.23;100639.63;5065531;28;20721;-47